Date,TemperatureHighF,TemperatureAvgF,TemperatureLowF,DewpointHighF,DewpointAvgF,DewpointLowF,HumidityHigh,HumidityAvg,HumidityLow,PressureMaxIn,PressureMinIn,WindSpeedMaxMPH,WindSpeedAvgMPH,GustSpeedMaxMPH,PrecipitationSumIn
2013-2-1,62.5,50.6,39.9,46.6,42.1,37.2,91,74,51,30.01,29.90,1,0,4,0.00
2013-2-2,46.0,45.2,44.4,40.9,40.6,40.2,85,84,82,30.02,30.01,0,0,0,0.00
2013-2-6,49.0,44.6,41.3,40.7,37.7,35.7,83,77,73,29.95,29.92,0,0,1,0.01
2013-2-7,50.3,43.6,37.2,44.9,38.4,33.7,93,82,66,29.95,29.79,1,0,5,0.15
2013-2-8,51.9,42.7,35.1,39.0,35.5,32.4,91,77,49,29.83,29.74,1,0,6,0.00
2013-2-9,56.1,44.6,34.1,39.1,32.5,26.7,88,65,33,29.90,29.80,2,0,2,0.00
2013-2-10,59.7,46.2,34.7,41.2,35.5,31.6,89,69,38,29.92,29.80,1,0,3,0.00
2013-2-11,62.5,49.5,37.6,41.1,36.6,32.6,83,64,34,30.02,29.89,2,0,3,0.00
2013-2-12,59.4,47.3,35.6,44.0,38.4,32.3,91,73,48,30.15,30.03,2,0,4,0.00
2013-2-13,63.2,49.5,38.3,47.1,41.0,35.1,90,74,53,30.14,29.99,1,0,5,0.00
2013-2-14,67.8,53.5,41.5,51.0,43.3,37.8,90,71,41,30.04,29.94,1,0,3,0.00
2013-2-15,68.7,54.1,42.0,46.8,40.7,36.3,81,63,31,30.07,30.00,1,0,4,0.00
2013-2-16,67.7,54.2,44.2,47.6,41.2,37.3,82,63,34,30.05,29.84,1,0,3,0.00
2013-2-17,61.7,50.8,42.4,43.6,39.4,36.4,81,66,45,29.84,29.75,1,0,4,0.00
2013-2-18,52.1,44.2,35.2,43.2,37.6,31.9,91,78,67,29.82,29.70,2,0,4,0.00
2013-2-19,44.7,40.0,35.3,41.8,35.3,31.1,92,83,74,29.75,29.54,2,0,4,0.21
2013-2-20,53.7,43.6,35.2,41.0,35.0,30.6,86,73,50,29.87,29.66,2,0,6,0.00
2013-2-21,56.0,46.5,37.9,39.1,35.3,30.9,84,67,41,29.97,29.86,1,0,2,0.00
2013-2-22,61.8,50.2,39.7,41.2,37.6,32.8,79,64,40,30.05,29.96,1,0,3,0.00
2013-2-23,55.3,46.7,40.2,39.3,34.7,29.4,82,64,39,30.08,29.96,3,0,6,0.00
2013-2-24,62.5,48.9,37.1,39.9,34.1,29.3,81,60,29,30.08,29.94,1,0,3,0.00
2013-2-25,61.3,49.9,41.3,42.0,34.5,22.2,78,58,24,30.06,29.95,2,0,4,0.00
2013-2-26,67.3,51.5,36.5,39.4,32.8,28.9,79,52,26,30.03,29.93,1,0,4,0.00
2013-2-27,66.5,53.3,40.8,46.3,37.1,30.0,80,55,34,30.17,30.01,1,0,4,0.00
2013-2-28,67.3,57.0,48.2,53.0,48.2,43.8,87,73,58,30.23,30.15,1,0,4,0.00